createdAt,value
2022-12-11T00:01:18.158Z,20.65
2022-12-11T00:03:47.343Z,20.67
2022-12-11T00:06:20.933Z,20.70
2022-12-11T00:08:49.380Z,20.74
2022-12-11T00:11:18.632Z,20.77
2022-12-11T00:13:47.164Z,20.81
2022-12-11T00:16:15.913Z,20.84
2022-12-11T00:18:44.581Z,20.92
2022-12-11T00:21:16.244Z,20.97
2022-12-11T00:23:44.759Z,21.04
2022-12-11T00:26:17.450Z,21.09
2022-12-11T00:28:46.994Z,21.16
2022-12-11T00:31:20.328Z,21.22
2022-12-11T00:33:52.223Z,21.28
2022-12-11T00:36:23.332Z,21.35
2022-12-11T00:38:52.352Z,21.42
2022-12-11T00:41:20.952Z,21.47
2022-12-11T00:43:49.286Z,21.53
2022-12-11T00:46:17.738Z,21.59
2022-12-11T00:48:47.309Z,21.64
2022-12-11T00:51:15.672Z,21.70
2022-12-11T00:53:45.155Z,21.75
2022-12-11T00:56:16.748Z,21.80
2022-12-11T00:58:45.462Z,21.85
2022-12-11T01:01:20.355Z,21.92
2022-12-11T01:03:49.576Z,21.97
2022-12-11T01:06:21.398Z,22.03
2022-12-11T01:09:09.988Z,22.09
2022-12-11T01:11:38.986Z,22.14
2022-12-11T01:14:07.501Z,22.20
2022-12-11T01:16:35.921Z,22.24
2022-12-11T01:19:04.698Z,22.28
2022-12-11T01:21:33.065Z,22.34
2022-12-11T01:24:01.466Z,22.39
2022-12-11T01:26:30.479Z,22.45
2022-12-11T01:28:58.922Z,22.49
2022-12-11T01:31:27.387Z,22.55
2022-12-11T01:33:57.096Z,22.61
2022-12-11T01:36:25.790Z,22.67
2022-12-11T01:38:55.378Z,22.71
2022-12-11T01:41:24.152Z,22.77
2022-12-11T01:44:00.152Z,22.84
2022-12-11T01:46:29.230Z,22.89
2022-12-11T01:48:58.930Z,22.94
2022-12-11T01:51:28.683Z,23.01
2022-12-11T01:54:06.211Z,23.06
2022-12-11T01:56:37.382Z,23.14
2022-12-11T01:59:09.086Z,23.19
2022-12-11T02:01:46.414Z,23.28
2022-12-11T02:04:16.458Z,23.36
2022-12-11T02:06:49.161Z,23.42
2022-12-11T02:09:25.009Z,23.50
2022-12-11T02:12:20.701Z,23.55
2022-12-11T02:14:57.809Z,23.63
2022-12-11T02:17:26.063Z,23.69
2022-12-11T02:20:14.160Z,23.75
2022-12-11T02:23:12.731Z,23.81
2022-12-11T02:26:18.065Z,23.86
2022-12-11T02:29:12.365Z,23.93
2022-12-11T02:31:47.229Z,24.00
2022-12-11T02:34:24.202Z,24.07
2022-12-11T02:36:58.362Z,24.16
2022-12-11T02:39:28.876Z,24.22
2022-12-11T02:41:58.020Z,24.25
2022-12-11T02:44:30.491Z,24.32
2022-12-11T02:47:00.624Z,24.35
2022-12-11T02:49:30.208Z,24.40
2022-12-11T02:52:00.430Z,24.44
2022-12-11T02:54:34.415Z,24.51
2022-12-11T02:57:10.367Z,24.57
2022-12-11T02:59:41.765Z,24.65
2022-12-11T03:02:12.257Z,24.73
2022-12-11T03:04:41.742Z,24.83
2022-12-11T03:07:20.654Z,24.94
2022-12-11T03:09:50.764Z,25.03
2022-12-11T03:12:40.106Z,25.13
2022-12-11T03:15:12.602Z,25.22
2022-12-11T03:18:18.443Z,25.34
2022-12-11T03:21:01.628Z,25.41
2022-12-11T03:23:44.868Z,25.48
2022-12-11T03:26:17.109Z,25.50
2022-12-11T03:29:01.796Z,25.52
2022-12-11T03:31:30.055Z,25.60
2022-12-11T03:34:02.525Z,25.67
2022-12-11T03:36:36.061Z,25.77
2022-12-11T03:39:13.750Z,25.89
2022-12-11T03:41:45.371Z,26.00
2022-12-11T03:44:14.687Z,26.10
2022-12-11T03:46:46.399Z,26.19
2022-12-11T03:49:28.876Z,26.30
2022-12-11T03:51:59.537Z,26.37
2022-12-11T03:54:28.891Z,26.40
2022-12-11T03:57:00.375Z,26.41
2022-12-11T03:59:28.748Z,26.38
2022-12-11T04:01:57.117Z,26.38
2022-12-11T04:04:25.534Z,26.41
2022-12-11T04:06:56.098Z,26.46
2022-12-11T04:09:24.411Z,26.51
2022-12-11T04:11:52.699Z,26.59
2022-12-11T04:14:39.250Z,26.65
2022-12-11T04:17:07.876Z,26.68
2022-12-11T04:20:14.365Z,26.72
2022-12-11T04:23:00.914Z,26.72
2022-12-11T04:25:29.249Z,26.68
2022-12-11T04:27:57.593Z,26.64
2022-12-11T04:30:33.794Z,26.57
2022-12-11T04:33:02.577Z,26.57
2022-12-11T04:35:31.250Z,26.57
2022-12-11T04:37:59.661Z,26.59
2022-12-11T04:40:28.057Z,26.61
2022-12-11T04:42:56.396Z,26.61
2022-12-11T04:45:24.735Z,26.61
2022-12-11T04:47:53.134Z,26.64
2022-12-11T04:50:21.754Z,26.66
2022-12-11T04:52:50.109Z,26.72
2022-12-11T04:55:18.498Z,26.78
2022-12-11T04:57:46.806Z,26.83
2022-12-11T05:00:16.010Z,26.87
2022-12-11T05:02:44.621Z,26.92
2022-12-11T05:05:13.932Z,26.98
2022-12-11T05:07:43.084Z,27.05
2022-12-11T05:10:11.734Z,27.08
2022-12-11T05:12:40.331Z,27.10
2022-12-11T05:15:09.835Z,27.16
2022-12-11T05:17:38.365Z,27.17
2022-12-11T05:20:07.269Z,27.20
2022-12-11T05:22:35.668Z,27.25
2022-12-11T05:25:04.449Z,27.28
2022-12-11T05:27:33.064Z,27.31
2022-12-11T05:30:01.384Z,27.35
2022-12-11T05:32:30.480Z,27.37
2022-12-11T05:34:58.825Z,27.38
2022-12-11T05:37:27.156Z,27.45
2022-12-11T05:39:55.484Z,27.47
2022-12-11T05:42:28.574Z,27.50
2022-12-11T05:44:57.495Z,27.54
2022-12-11T05:47:26.521Z,27.57
2022-12-11T05:49:54.883Z,27.61
2022-12-11T05:52:23.217Z,27.66
2022-12-11T05:54:51.731Z,27.74
2022-12-11T05:57:20.177Z,27.83
2022-12-11T05:59:48.530Z,27.89
2022-12-11T06:02:16.970Z,27.96
2022-12-11T06:04:45.466Z,27.95
2022-12-11T06:07:15.151Z,27.93
2022-12-11T06:09:43.515Z,27.95
2022-12-11T06:12:11.889Z,27.93
2022-12-11T06:14:40.236Z,27.89
2022-12-11T06:17:08.619Z,27.89
2022-12-11T06:19:37.270Z,27.90
2022-12-11T06:22:06.105Z,27.90
2022-12-11T06:24:34.549Z,27.87
2022-12-11T06:27:02.904Z,27.84
2022-12-11T06:29:31.216Z,27.81
2022-12-11T06:31:59.559Z,27.79
2022-12-11T06:34:27.925Z,27.75
2022-12-11T06:36:56.239Z,27.73
2022-12-11T06:39:24.575Z,27.70
2022-12-11T06:41:52.868Z,27.68
2022-12-11T06:44:21.290Z,27.70
2022-12-11T06:46:49.626Z,27.72
2022-12-11T06:49:17.951Z,27.76
2022-12-11T06:51:46.305Z,27.78
2022-12-11T06:54:14.697Z,27.81
2022-12-11T06:56:43.101Z,27.85
2022-12-11T06:59:14.453Z,27.87
2022-12-11T07:01:42.837Z,27.88
2022-12-11T07:04:11.232Z,27.89
2022-12-11T07:06:39.624Z,27.94
2022-12-11T07:09:08.251Z,27.96
2022-12-11T07:11:36.583Z,27.98
2022-12-11T07:14:04.927Z,27.99
2022-12-11T07:16:33.310Z,28.01
2022-12-11T07:19:02.053Z,28.02
2022-12-11T07:21:30.569Z,28.05
2022-12-11T07:23:58.884Z,28.07
2022-12-11T07:26:27.657Z,28.09
2022-12-11T07:28:59.799Z,28.12
2022-12-11T07:31:30.696Z,28.14
2022-12-11T07:34:01.384Z,28.18
2022-12-11T07:36:31.268Z,28.20
2022-12-11T07:39:01.062Z,28.20
2022-12-11T07:41:29.788Z,28.23
2022-12-11T07:43:58.169Z,28.24
2022-12-11T07:46:29.024Z,28.26
2022-12-11T07:48:57.531Z,28.28
2022-12-11T07:51:28.880Z,28.29
2022-12-11T07:54:00.162Z,28.31
2022-12-11T07:56:30.563Z,28.33
2022-12-11T07:59:01.976Z,28.36
2022-12-11T08:01:32.261Z,28.40
2022-12-11T08:04:00.663Z,28.42
2022-12-11T08:06:34.654Z,28.44
2022-12-11T08:09:06.117Z,28.46
2022-12-11T08:11:35.050Z,28.45
2022-12-11T08:14:03.994Z,28.44
2022-12-11T08:16:33.133Z,28.39
2022-12-11T08:19:01.603Z,28.36
2022-12-11T08:21:30.464Z,28.34
2022-12-11T08:23:58.911Z,28.32
2022-12-11T08:26:30.712Z,28.32
2022-12-11T08:29:00.158Z,28.31
2022-12-11T08:31:28.678Z,28.30
2022-12-11T08:33:58.682Z,28.33
2022-12-11T08:36:27.506Z,28.33
2022-12-11T08:38:57.379Z,28.35
2022-12-11T08:41:28.361Z,28.38
2022-12-11T08:43:58.494Z,28.42
2022-12-11T08:46:30.169Z,28.42
2022-12-11T08:48:59.381Z,28.41
2022-12-11T08:51:29.543Z,28.42
2022-12-11T08:54:00.713Z,28.37
2022-12-11T08:56:30.458Z,28.34
2022-12-11T08:59:01.913Z,28.29
2022-12-11T09:01:30.699Z,28.26
2022-12-11T09:03:59.274Z,28.17
2022-12-11T09:06:30.375Z,28.09
2022-12-11T09:09:01.209Z,27.99
2022-12-11T09:11:32.788Z,27.91
2022-12-11T09:14:05.444Z,27.82
2022-12-11T09:16:38.643Z,27.79
2022-12-11T09:19:09.904Z,27.76
2022-12-11T09:21:38.637Z,27.73
2022-12-11T09:24:07.532Z,27.70
2022-12-11T09:26:36.185Z,27.66
2022-12-11T09:29:06.009Z,27.63
2022-12-11T09:31:38.060Z,27.58
2022-12-11T09:34:09.452Z,27.55
2022-12-11T09:36:40.257Z,27.51
2022-12-11T09:39:10.111Z,27.47
2022-12-11T09:42:09.998Z,27.42
2022-12-11T09:44:59.610Z,27.37
2022-12-11T09:47:42.047Z,27.32
2022-12-11T09:50:22.265Z,27.27
2022-12-11T09:53:09.780Z,27.22
2022-12-11T09:55:47.818Z,27.18
2022-12-11T09:58:58.802Z,27.14
2022-12-11T10:01:57.650Z,27.07
2022-12-11T10:04:37.977Z,27.03
2022-12-11T10:07:29.350Z,26.96
2022-12-11T10:10:01.582Z,26.88
2022-12-11T10:13:04.970Z,26.82
2022-12-11T10:16:13.683Z,26.77
2022-12-11T10:18:43.367Z,26.68
2022-12-11T10:21:14.140Z,26.61
2022-12-11T10:23:51.507Z,26.52
2022-12-11T10:26:22.369Z,26.44
2022-12-11T10:28:51.727Z,26.37
2022-12-11T10:31:42.542Z,26.29
2022-12-11T10:34:41.691Z,26.20
2022-12-11T10:37:10.701Z,26.12
2022-12-11T10:39:39.663Z,26.03
2022-12-11T10:42:23.921Z,25.94
2022-12-11T10:45:02.305Z,25.85
2022-12-11T10:47:31.722Z,25.76
2022-12-11T10:50:03.513Z,25.70
2022-12-11T10:52:47.023Z,25.62
2022-12-11T10:55:30.592Z,25.57
2022-12-11T10:58:03.494Z,25.51
2022-12-11T11:00:40.313Z,25.46
2022-12-11T11:03:26.423Z,25.39
2022-12-11T11:06:17.309Z,25.32
2022-12-11T11:08:54.913Z,25.24
2022-12-11T11:11:34.338Z,25.18
2022-12-11T11:14:20.815Z,25.10
2022-12-11T11:16:52.717Z,25.06
2022-12-11T11:19:23.960Z,25.00
2022-12-11T11:22:06.530Z,24.95
2022-12-11T11:24:40.529Z,24.90
2022-12-11T11:27:14.844Z,24.85
2022-12-11T11:29:45.769Z,24.83
2022-12-11T11:32:24.984Z,24.79
2022-12-11T11:34:53.333Z,24.74
2022-12-11T11:37:54.854Z,24.69
2022-12-11T11:40:46.284Z,24.62
2022-12-11T11:43:39.916Z,24.58
2022-12-11T11:46:55.471Z,24.52
2022-12-11T11:49:42.849Z,24.47
2022-12-11T11:52:39.400Z,24.42
2022-12-11T11:55:22.602Z,24.36
2022-12-11T11:58:25.500Z,24.30
2022-12-11T12:00:56.984Z,24.24
2022-12-11T12:03:26.917Z,24.20
2022-12-11T12:06:19.859Z,24.15
2022-12-11T12:09:12.361Z,24.10
2022-12-11T12:12:12.678Z,24.06
2022-12-11T12:14:52.019Z,24.03
2022-12-11T12:17:27.278Z,23.99
2022-12-11T12:20:36.636Z,23.95
2022-12-11T12:23:36.694Z,23.90
2022-12-11T12:26:34.815Z,23.84
2022-12-11T12:29:21.849Z,23.81
2022-12-11T12:32:11.964Z,23.76
2022-12-11T12:35:06.352Z,23.71
2022-12-11T12:37:53.329Z,23.66
2022-12-11T12:40:56.537Z,23.62
2022-12-11T12:43:30.556Z,23.57
2022-12-11T12:46:22.677Z,23.53
2022-12-11T12:48:53.358Z,23.50
2022-12-11T12:51:22.513Z,23.48
2022-12-11T12:54:00.835Z,23.48
2022-12-11T12:56:33.185Z,23.47
2022-12-11T12:59:01.498Z,23.46
2022-12-11T13:01:31.823Z,23.44
2022-12-11T13:04:03.993Z,23.42
2022-12-11T13:06:40.314Z,23.40
2022-12-11T13:09:22.543Z,23.38
2022-12-11T13:11:55.532Z,23.35
2022-12-11T13:14:32.678Z,23.31
2022-12-11T13:17:22.165Z,23.27
2022-12-11T13:19:53.987Z,23.25
2022-12-11T13:22:25.053Z,23.22
2022-12-11T13:24:53.316Z,23.20
2022-12-11T13:27:26.721Z,23.18
2022-12-11T13:30:09.641Z,23.16
2022-12-11T13:32:38.265Z,23.15
2022-12-11T13:35:08.743Z,23.14
2022-12-11T13:37:44.390Z,23.12
2022-12-11T13:40:26.560Z,23.11
2022-12-11T13:42:58.729Z,23.08
2022-12-11T13:45:30.116Z,23.05
2022-12-11T13:47:59.873Z,23.02
2022-12-11T13:50:32.726Z,23.00
2022-12-11T13:53:03.068Z,22.97
2022-12-11T13:55:34.440Z,22.95
2022-12-11T13:58:02.905Z,22.92
2022-12-11T14:00:33.857Z,22.90
2022-12-11T14:03:08.522Z,22.90
2022-12-11T14:05:37.481Z,22.89
2022-12-11T14:08:11.403Z,22.90
2022-12-11T14:10:41.207Z,22.90
2022-12-11T14:13:37.356Z,22.88
2022-12-11T14:16:07.177Z,22.85
2022-12-11T14:18:37.901Z,22.84
2022-12-11T14:21:07.614Z,22.83
2022-12-11T14:23:38.778Z,22.81
2022-12-11T14:26:21.345Z,22.80
2022-12-11T14:28:49.758Z,22.77
2022-12-11T14:31:26.539Z,22.76
2022-12-11T14:34:06.436Z,22.74
2022-12-11T14:36:37.388Z,22.71
2022-12-11T14:39:17.827Z,22.67
2022-12-11T14:41:56.365Z,22.66
2022-12-11T14:44:28.458Z,22.66
2022-12-11T14:47:03.680Z,22.63
2022-12-11T14:49:34.633Z,22.62
2022-12-11T14:52:04.145Z,22.62
2022-12-11T14:54:45.862Z,22.61
2022-12-11T14:57:22.542Z,22.59
2022-12-11T14:59:54.493Z,22.58
2022-12-11T15:02:31.655Z,22.56
2022-12-11T15:05:19.899Z,22.54
2022-12-11T15:08:11.405Z,22.51
2022-12-11T15:10:57.416Z,22.49
2022-12-11T15:13:26.555Z,22.47
2022-12-11T15:15:56.843Z,22.45
2022-12-11T15:18:27.954Z,22.43
2022-12-11T15:21:03.788Z,22.40
2022-12-11T15:23:32.528Z,22.37
2022-12-11T15:26:03.222Z,22.33
2022-12-11T15:28:37.434Z,22.28
2022-12-11T15:31:09.626Z,22.25
2022-12-11T15:33:51.133Z,22.22
2022-12-11T15:36:38.267Z,22.17
2022-12-11T15:39:09.618Z,22.15
2022-12-11T15:41:38.101Z,22.13
2022-12-11T15:44:06.865Z,22.11
2022-12-11T15:46:38.363Z,22.08
2022-12-11T15:49:13.818Z,22.05
2022-12-11T15:51:43.335Z,22.03
2022-12-11T15:54:11.990Z,22.02
2022-12-11T15:56:40.971Z,21.99
2022-12-11T15:59:10.592Z,21.98
2022-12-11T16:01:38.959Z,21.97
2022-12-11T16:04:07.420Z,21.95
2022-12-11T16:06:35.807Z,21.93
2022-12-11T16:09:05.990Z,21.91
2022-12-11T16:11:34.313Z,21.90
2022-12-11T16:14:05.343Z,21.87
2022-12-11T16:16:34.020Z,21.85
2022-12-11T16:19:02.382Z,21.84
2022-12-11T16:21:30.897Z,21.81
2022-12-11T16:23:59.209Z,21.81
2022-12-11T16:26:28.443Z,21.80
2022-12-11T16:28:56.738Z,21.78
2022-12-11T16:31:25.173Z,21.77
2022-12-11T16:33:53.697Z,21.76
2022-12-11T16:36:22.199Z,21.77
2022-12-11T16:38:53.785Z,21.74
2022-12-11T16:41:23.827Z,21.74
2022-12-11T16:43:52.908Z,21.74
2022-12-11T16:46:25.467Z,21.74
2022-12-11T16:48:53.827Z,21.75
2022-12-11T16:51:22.219Z,21.75
2022-12-11T16:53:50.734Z,21.76
2022-12-11T16:56:19.065Z,21.76
2022-12-11T16:58:48.570Z,21.75
2022-12-11T17:01:17.273Z,21.73
2022-12-11T17:03:46.139Z,21.72
2022-12-11T17:06:18.120Z,21.69
2022-12-11T17:08:46.803Z,21.67
2022-12-11T17:11:18.637Z,21.66
2022-12-11T17:13:47.411Z,21.65
2022-12-11T17:16:17.514Z,21.64
2022-12-11T17:18:45.877Z,21.63
2022-12-11T17:21:19.418Z,21.62
2022-12-11T17:23:47.894Z,21.60
2022-12-11T17:26:17.445Z,21.60
2022-12-11T17:28:46.029Z,21.58
2022-12-11T17:31:19.904Z,21.56
2022-12-11T17:33:49.115Z,21.55
2022-12-11T17:36:20.616Z,21.53
2022-12-11T17:38:50.886Z,21.53
2022-12-11T17:41:21.016Z,21.50
2022-12-11T17:43:54.574Z,21.50
2022-12-11T17:46:22.944Z,21.47
2022-12-11T17:48:51.413Z,21.45
2022-12-11T17:51:25.512Z,21.44
2022-12-11T17:53:56.955Z,21.43
2022-12-11T17:56:26.290Z,21.41
2022-12-11T17:58:54.685Z,21.38
2022-12-11T18:01:23.315Z,21.36
2022-12-11T18:03:51.794Z,21.34
2022-12-11T18:06:20.137Z,21.32
2022-12-11T18:08:48.528Z,21.30
2022-12-11T18:11:19.001Z,21.29
2022-12-11T18:13:47.386Z,21.27
2022-12-11T18:16:20.602Z,21.27
2022-12-11T18:18:51.284Z,21.28
2022-12-11T18:21:23.335Z,21.26
2022-12-11T18:23:52.326Z,21.25
2022-12-11T18:26:21.929Z,21.24
2022-12-11T18:28:51.446Z,21.24
2022-12-11T18:31:20.998Z,21.21
2022-12-11T18:33:50.201Z,21.19
2022-12-11T18:36:20.237Z,21.18
2022-12-11T18:38:49.018Z,21.17
2022-12-11T18:41:19.151Z,21.15
2022-12-11T18:43:47.619Z,21.15
2022-12-11T18:46:18.798Z,21.13
2022-12-11T18:48:47.951Z,21.10
2022-12-11T18:51:19.912Z,21.09
2022-12-11T18:53:48.276Z,21.06
2022-12-11T18:56:18.502Z,21.06
2022-12-11T18:58:47.611Z,21.05
2022-12-11T19:01:25.870Z,21.02
2022-12-11T19:04:06.700Z,20.99
2022-12-11T19:06:38.961Z,20.99
2022-12-11T19:09:09.863Z,20.97
2022-12-11T19:11:41.696Z,20.95
2022-12-11T19:14:11.160Z,20.93
2022-12-11T19:16:42.491Z,20.91
2022-12-11T19:19:19.552Z,20.89
2022-12-11T19:21:49.495Z,20.87
2022-12-11T19:24:23.555Z,20.87
2022-12-11T19:26:52.361Z,20.85
2022-12-11T19:29:23.686Z,20.86
2022-12-11T19:31:52.898Z,20.86
2022-12-11T19:34:21.700Z,20.86
2022-12-11T19:36:50.434Z,20.86
2022-12-11T19:39:20.653Z,20.84
2022-12-11T19:41:50.091Z,20.84
2022-12-11T19:44:18.456Z,20.82
2022-12-11T19:46:46.856Z,20.80
2022-12-11T19:49:15.450Z,20.78
2022-12-11T19:51:44.565Z,20.76
2022-12-11T19:54:17.996Z,20.73
2022-12-11T19:56:46.869Z,20.70
2022-12-11T19:59:17.803Z,20.65
2022-12-11T20:01:48.858Z,20.62
2022-12-11T20:04:18.851Z,20.59
2022-12-11T20:06:48.362Z,20.56
2022-12-11T20:09:17.765Z,20.53
2022-12-11T20:11:48.249Z,20.50
2022-12-11T20:14:23.858Z,20.48
2022-12-11T20:17:12.328Z,20.44
2022-12-11T20:19:42.348Z,20.42
2022-12-11T20:22:10.731Z,20.40
2022-12-11T20:24:39.324Z,20.35
2022-12-11T20:27:07.684Z,20.34
2022-12-11T20:29:36.134Z,20.31
2022-12-11T20:32:04.508Z,20.28
2022-12-11T20:34:33.000Z,20.27
2022-12-11T20:37:01.347Z,20.25
2022-12-11T20:39:30.157Z,20.22
2022-12-11T20:41:58.621Z,20.22
2022-12-11T20:44:26.945Z,20.19
2022-12-11T20:46:55.330Z,20.18
2022-12-11T20:49:23.673Z,20.15
2022-12-11T20:51:51.976Z,20.13
2022-12-11T20:54:20.382Z,20.11
2022-12-11T20:56:48.907Z,20.10
2022-12-11T20:59:17.492Z,20.08
2022-12-11T21:01:46.079Z,20.05
2022-12-11T21:04:14.442Z,20.03
2022-12-11T21:06:43.321Z,19.99
2022-12-11T21:09:18.632Z,19.96
2022-12-11T21:11:47.246Z,19.93
2022-12-11T21:14:17.457Z,19.92
2022-12-11T21:16:46.898Z,19.89
2022-12-11T21:19:22.911Z,19.87
2022-12-11T21:21:52.056Z,19.84
2022-12-11T21:24:28.396Z,19.83
2022-12-11T21:26:58.959Z,19.82
2022-12-11T21:29:30.231Z,19.79
2022-12-11T21:31:59.638Z,19.77
2022-12-11T21:34:28.162Z,19.76
2022-12-11T21:36:57.640Z,19.75
2022-12-11T21:39:27.444Z,19.75
2022-12-11T21:41:55.780Z,19.74
2022-12-11T21:47:12.545Z,19.74
2022-12-11T21:49:40.989Z,19.73
2022-12-11T21:52:10.189Z,19.70
2022-12-11T21:54:38.567Z,19.68
2022-12-11T21:57:06.981Z,19.65
2022-12-11T21:59:35.966Z,19.64
2022-12-11T22:02:04.423Z,19.63
2022-12-11T22:04:32.773Z,19.62
2022-12-11T22:07:01.356Z,19.61
2022-12-11T22:09:29.720Z,19.60
2022-12-11T22:11:58.717Z,19.59
2022-12-11T22:14:27.717Z,19.59
2022-12-11T22:16:56.126Z,19.59
2022-12-11T22:19:29.088Z,19.58
2022-12-11T22:22:00.576Z,19.57
2022-12-11T22:24:28.890Z,19.55
2022-12-11T22:26:57.207Z,19.55
2022-12-11T22:29:25.560Z,19.54
2022-12-11T22:31:55.431Z,19.53
2022-12-11T22:34:23.875Z,19.50
2022-12-11T22:36:52.289Z,19.50
2022-12-11T22:39:20.706Z,19.49
2022-12-11T22:41:49.126Z,19.48
2022-12-11T22:44:19.729Z,19.44
2022-12-11T22:46:50.225Z,19.43
2022-12-11T22:49:20.241Z,19.41
2022-12-11T22:51:49.859Z,19.40
2022-12-11T22:54:18.185Z,19.36
2022-12-11T22:56:46.537Z,19.35
2022-12-11T22:59:15.122Z,19.33
2022-12-11T23:01:43.537Z,19.31
2022-12-11T23:04:11.878Z,19.29
2022-12-11T23:06:40.384Z,19.27
2022-12-11T23:09:09.519Z,19.26
2022-12-11T23:11:39.333Z,19.24
2022-12-11T23:14:09.653Z,19.22
2022-12-11T23:16:38.033Z,19.21
2022-12-11T23:19:06.751Z,19.19
2022-12-11T23:21:35.363Z,19.17
2022-12-11T23:24:04.887Z,19.14
2022-12-11T23:26:34.060Z,19.12
2022-12-11T23:29:03.177Z,19.11
2022-12-11T23:31:31.862Z,19.09
2022-12-11T23:34:00.633Z,19.08
2022-12-11T23:36:30.246Z,19.08
2022-12-11T23:38:58.691Z,19.08
2022-12-11T23:41:27.122Z,19.08
2022-12-11T23:43:55.610Z,19.06
2022-12-11T23:46:25.517Z,19.05
2022-12-11T23:48:54.886Z,19.06
2022-12-11T23:51:25.279Z,19.07
2022-12-11T23:53:54.639Z,19.08
2022-12-11T23:56:29.045Z,19.10
2022-12-11T23:58:58.425Z,19.11
